createdAt,value
2023-04-23T00:01:48.168Z,99424.03
2023-04-23T00:04:18.284Z,99422.47
2023-04-23T00:06:46.627Z,99424.06
2023-04-23T00:09:16.764Z,99419.28
2023-04-23T00:11:43.648Z,99416.63
2023-04-23T00:14:11.403Z,99415.25
2023-04-23T00:16:39.946Z,99416.66
2023-04-23T00:19:06.823Z,99415.00
2023-04-23T00:21:33.798Z,99409.09
2023-04-23T00:24:00.458Z,99404.88
2023-04-23T00:26:27.008Z,99406.19
2023-04-23T00:28:54.102Z,99400.44
2023-04-23T00:31:22.564Z,99404.91
2023-04-23T00:33:49.184Z,99405.22
2023-04-23T00:36:15.728Z,99398.75
2023-04-23T00:38:42.323Z,99397.38
2023-04-23T00:41:09.056Z,99401.44
2023-04-23T00:43:35.622Z,99401.44
2023-04-23T00:46:02.643Z,99397.13
2023-04-23T00:48:29.672Z,99398.84
2023-04-23T00:51:00.713Z,99392.56
2023-04-23T00:53:27.376Z,99397.34
2023-04-23T00:55:54.535Z,99394.00
2023-04-23T00:58:21.435Z,99396.41
2023-04-23T01:00:49.161Z,99399.28
2023-04-23T01:03:18.420Z,99398.53
2023-04-23T01:05:45.530Z,99401.56
2023-04-23T01:08:16.535Z,99397.53
2023-04-23T01:10:47.282Z,99396.13
2023-04-23T01:13:14.233Z,99400.88
2023-04-23T01:15:41.638Z,99399.31
2023-04-23T01:18:08.479Z,99401.69
2023-04-23T01:20:35.792Z,99389.78
2023-04-23T01:23:05.784Z,99400.00
2023-04-23T01:25:32.627Z,99399.06
2023-04-23T01:27:59.594Z,99397.25
2023-04-23T01:30:27.651Z,99393.03
2023-04-23T01:32:57.783Z,99405.63
2023-04-23T01:35:25.103Z,99391.94
2023-04-23T01:37:52.741Z,99395.81
2023-04-23T01:40:20.892Z,99390.38
2023-04-23T01:42:49.100Z,99389.09
2023-04-23T01:45:17.700Z,99393.44
2023-04-23T01:47:44.428Z,99389.94
2023-04-23T01:50:11.340Z,99393.03
2023-04-23T01:52:38.253Z,99390.63
2023-04-23T01:55:05.250Z,99394.44
2023-04-23T01:57:31.967Z,99393.03
2023-04-23T02:00:08.489Z,99403.28
2023-04-23T02:02:35.870Z,99396.69
2023-04-23T02:05:06.120Z,99391.63
2023-04-23T02:07:33.783Z,99392.38
2023-04-23T02:10:01.830Z,99387.44
2023-04-23T02:12:28.362Z,99388.84
2023-04-23T02:14:54.880Z,99384.75
2023-04-23T02:17:22.804Z,99382.81
2023-04-23T02:19:49.979Z,99381.44
2023-04-23T02:22:19.356Z,99385.94
2023-04-23T02:24:47.273Z,99386.19
2023-04-23T02:27:13.884Z,99382.00
2023-04-23T02:29:41.215Z,99381.69
2023-04-23T02:32:08.402Z,99390.25
2023-04-23T02:34:35.508Z,99383.94
2023-04-23T02:37:02.400Z,99388.94
2023-04-23T02:39:29.605Z,99396.78
2023-04-23T02:41:56.751Z,99397.34
2023-04-23T02:44:23.367Z,99397.50
2023-04-23T02:46:50.396Z,99396.09
2023-04-23T02:49:17.219Z,99392.13
2023-04-23T02:51:43.724Z,99386.41
2023-04-23T02:54:11.208Z,99390.25
2023-04-23T02:56:37.873Z,99385.22
2023-04-23T02:59:04.670Z,99386.75
2023-04-23T03:01:31.228Z,99386.88
2023-04-23T03:03:58.519Z,99379.88
2023-04-23T03:06:25.158Z,99389.69
2023-04-23T03:08:51.690Z,99380.44
2023-04-23T03:11:18.209Z,99378.63
2023-04-23T03:13:44.755Z,99378.34
2023-04-23T03:16:11.406Z,99370.53
2023-04-23T03:18:37.964Z,99363.69
2023-04-23T03:21:04.548Z,99366.19
2023-04-23T03:23:31.070Z,99365.63
2023-04-23T03:25:57.924Z,99358.09
2023-04-23T03:28:24.503Z,99365.19
2023-04-23T03:30:53.955Z,99361.69
2023-04-23T03:33:20.545Z,99361.00
2023-04-23T03:35:47.110Z,99352.91
2023-04-23T03:38:13.648Z,99340.31
2023-04-23T03:40:40.198Z,99335.69
2023-04-23T03:43:06.695Z,99335.44
2023-04-23T03:45:33.249Z,99329.41
2023-04-23T03:47:59.814Z,99331.09
2023-04-23T03:50:26.398Z,99320.72
2023-04-23T03:52:52.932Z,99334.16
2023-04-23T03:55:20.914Z,99334.97
2023-04-23T03:57:47.477Z,99337.63
2023-04-23T04:00:14.730Z,99344.72
2023-04-23T04:02:41.411Z,99334.69
2023-04-23T04:05:09.633Z,99338.44
2023-04-23T04:07:37.133Z,99332.44
2023-04-23T04:10:05.887Z,99327.97
2023-04-23T04:12:32.528Z,99328.03
2023-04-23T04:14:59.162Z,99326.19
2023-04-23T04:17:25.897Z,99337.19
2023-04-23T04:19:52.466Z,99339.00
2023-04-23T04:22:18.992Z,99346.72
2023-04-23T04:24:47.462Z,99348.03
2023-04-23T04:27:15.105Z,99351.09
2023-04-23T04:29:41.630Z,99356.97
2023-04-23T04:32:09.489Z,99355.69
2023-04-23T04:34:39.239Z,99360.59
2023-04-23T04:37:05.987Z,99359.47
2023-04-23T04:39:32.495Z,99366.63
2023-04-23T04:41:59.901Z,99363.38
2023-04-23T04:44:26.487Z,99369.94
2023-04-23T04:46:53.871Z,99363.69
2023-04-23T04:49:21.865Z,99359.47
2023-04-23T04:51:48.438Z,99356.97
2023-04-23T04:54:15.054Z,99361.81
2023-04-23T04:56:41.759Z,99354.22
2023-04-23T04:59:08.297Z,99360.75
2023-04-23T05:01:35.094Z,99349.09
2023-04-23T05:04:02.024Z,99356.19
2023-04-23T05:06:28.856Z,99363.03
2023-04-23T05:08:55.333Z,99365.66
2023-04-23T05:11:21.932Z,99361.84
2023-04-23T05:13:49.006Z,99361.00
2023-04-23T05:16:15.954Z,99367.47
2023-04-23T05:18:42.578Z,99360.84
2023-04-23T05:21:09.507Z,99366.47
2023-04-23T05:23:36.293Z,99369.69
2023-04-23T05:26:06.158Z,99378.31
2023-04-23T05:28:32.749Z,99387.31
2023-04-23T05:30:59.433Z,99390.75
2023-04-23T05:33:30.670Z,99383.03
2023-04-23T05:36:00.030Z,99389.09
2023-04-23T05:38:26.757Z,99386.97
2023-04-23T05:40:53.329Z,99389.38
2023-04-23T05:43:19.932Z,99382.53
2023-04-23T05:45:46.593Z,99384.47
2023-04-23T05:48:13.294Z,99380.81
2023-04-23T05:50:39.876Z,99382.41
2023-04-23T05:53:06.653Z,99381.78
2023-04-23T05:55:33.199Z,99382.97
2023-04-23T05:57:59.783Z,99384.19
2023-04-23T06:00:26.566Z,99386.41
2023-04-23T06:02:53.412Z,99379.47
2023-04-23T06:05:20.853Z,99376.53
2023-04-23T06:07:47.641Z,99382.09
2023-04-23T06:10:14.253Z,99377.91
2023-04-23T06:12:42.183Z,99380.53
2023-04-23T06:15:09.903Z,99380.72
2023-04-23T06:17:37.290Z,99381.50
2023-04-23T06:20:05.148Z,99382.13
2023-04-23T06:22:32.610Z,99384.56
2023-04-23T06:24:59.326Z,99381.75
2023-04-23T06:27:27.127Z,99382.97
2023-04-23T06:29:53.856Z,99383.44
2023-04-23T06:32:21.464Z,99375.91
2023-04-23T06:35:00.017Z,99386.25
2023-04-23T06:37:29.864Z,99383.72
2023-04-23T06:39:56.731Z,99386.44
2023-04-23T06:42:23.396Z,99387.09
2023-04-23T06:44:51.850Z,99389.13
2023-04-23T06:47:19.359Z,99392.78
2023-04-23T06:49:46.036Z,99398.44
2023-04-23T06:52:12.633Z,99394.44
2023-04-23T06:54:39.461Z,99381.91
2023-04-23T06:57:06.434Z,99403.34
2023-04-23T06:59:33.011Z,99401.47
2023-04-23T07:01:59.592Z,99408.81
2023-04-23T07:04:26.317Z,99406.47
2023-04-23T07:06:52.868Z,99406.13
2023-04-23T07:09:19.910Z,99407.84
2023-04-23T07:11:46.694Z,99416.03
2023-04-23T07:14:13.189Z,99405.31
2023-04-23T07:16:39.798Z,99410.00
2023-04-23T07:19:06.466Z,99414.16
2023-04-23T07:21:33.268Z,99408.47
2023-04-23T07:24:00.794Z,99412.50
2023-04-23T07:26:28.053Z,99425.72
2023-04-23T07:28:54.728Z,99412.84
2023-04-23T07:31:22.014Z,99427.66
2023-04-23T07:33:48.642Z,99424.69
2023-04-23T07:36:15.604Z,99412.84
2023-04-23T07:38:42.965Z,99415.13
2023-04-23T07:41:09.496Z,99406.53
2023-04-23T07:43:36.085Z,99424.31
2023-04-23T07:46:02.692Z,99423.81
2023-04-23T07:48:29.234Z,99419.66
2023-04-23T07:50:56.585Z,99422.34
2023-04-23T07:53:23.389Z,99425.53
2023-04-23T07:55:49.884Z,99430.22
2023-04-23T07:58:16.430Z,99422.78
2023-04-23T08:00:42.989Z,99437.03
2023-04-23T08:03:09.660Z,99417.41
2023-04-23T08:05:38.493Z,99430.25
2023-04-23T08:08:05.182Z,99426.41
2023-04-23T08:10:32.129Z,99426.91
2023-04-23T08:12:58.713Z,99416.75
2023-04-23T08:15:25.241Z,99417.56
2023-04-23T08:17:51.928Z,99428.81
2023-04-23T08:20:18.778Z,99429.69
2023-04-23T08:22:45.616Z,99423.97
2023-04-23T08:25:15.489Z,99425.84
2023-04-23T08:27:42.047Z,99435.56
2023-04-23T08:30:09.582Z,99428.22
2023-04-23T08:32:36.198Z,99427.06
2023-04-23T08:35:02.913Z,99426.41
2023-04-23T08:37:31.217Z,99427.41
2023-04-23T08:39:58.408Z,99439.63
2023-04-23T08:42:45.536Z,99426.25
2023-04-23T08:45:12.877Z,99435.63
2023-04-23T08:47:43.245Z,99439.78
2023-04-23T08:50:17.989Z,99436.78
2023-04-23T08:52:52.135Z,99438.28
2023-04-23T08:55:19.393Z,99446.13
2023-04-23T08:57:46.873Z,99455.34
2023-04-23T09:00:14.630Z,99448.16
2023-04-23T09:02:42.430Z,99455.66
2023-04-23T09:05:10.120Z,99467.34
2023-04-23T09:07:36.974Z,99459.50
2023-04-23T09:10:06.000Z,99452.16
2023-04-23T09:12:32.970Z,99467.34
2023-04-23T09:14:59.669Z,99470.72
2023-04-23T09:17:30.523Z,99464.91
2023-04-23T09:19:58.301Z,99469.41
2023-04-23T09:22:46.057Z,99458.88
2023-04-23T09:25:16.320Z,99460.53
2023-04-23T09:27:42.946Z,99462.75
2023-04-23T09:30:11.925Z,99455.34
2023-04-23T09:32:39.370Z,99456.69
2023-04-23T09:35:07.930Z,99463.72
2023-04-23T09:37:35.502Z,99475.63
2023-04-23T09:40:04.781Z,99453.53
2023-04-23T09:42:32.964Z,99470.56
2023-04-23T09:45:04.382Z,99470.75
2023-04-23T09:48:00.418Z,99469.75
2023-04-23T09:50:40.888Z,99463.38
2023-04-23T09:53:09.695Z,99456.69
2023-04-23T09:55:39.191Z,99467.06
2023-04-23T09:58:07.323Z,99460.69
2023-04-23T10:00:38.402Z,99462.22
2023-04-23T10:03:07.447Z,99465.19
2023-04-23T10:08:13.785Z,99458.16
2023-04-23T10:10:55.130Z,99458.47
2023-04-23T10:13:27.975Z,99458.72
2023-04-23T10:15:59.007Z,99459.91
2023-04-23T10:18:32.978Z,99449.81
2023-04-23T10:21:02.359Z,99457.03
2023-04-23T10:23:29.598Z,99449.38
2023-04-23T10:25:57.106Z,99455.59
2023-04-23T10:28:29.236Z,99456.31
2023-04-23T10:30:58.332Z,99456.31
2023-04-23T10:33:31.816Z,99450.97
2023-04-23T10:36:00.339Z,99443.94
2023-04-23T10:38:28.387Z,99441.09
2023-04-23T10:40:58.791Z,99443.13
2023-04-23T10:43:25.626Z,99448.25
2023-04-23T10:45:52.176Z,99442.13
2023-04-23T10:48:18.680Z,99449.72
2023-04-23T10:51:04.740Z,99447.00
2023-04-23T10:53:36.984Z,99453.91
2023-04-23T10:56:07.686Z,99459.88
2023-04-23T10:58:53.110Z,99457.13
2023-04-23T11:01:22.088Z,99454.06
2023-04-23T11:03:48.915Z,99459.50
2023-04-23T11:06:39.998Z,99452.97
2023-04-23T11:09:45.994Z,99459.53
2023-04-23T11:12:26.996Z,99473.09
2023-04-23T11:14:55.012Z,99453.69
2023-04-23T11:17:44.528Z,99464.88
2023-04-23T11:20:14.023Z,99452.41
2023-04-23T11:22:43.646Z,99452.94
2023-04-23T11:25:16.073Z,99448.69
2023-04-23T11:27:44.170Z,99451.06
2023-04-23T11:30:13.853Z,99469.22
2023-04-23T11:32:42.348Z,99463.53
2023-04-23T11:35:11.357Z,99467.03
2023-04-23T11:37:43.430Z,99474.00
2023-04-23T11:40:13.909Z,99456.84
2023-04-23T11:42:49.435Z,99457.94
2023-04-23T11:45:24.823Z,99459.50
2023-04-23T11:47:56.292Z,99448.25
2023-04-23T11:50:28.589Z,99474.13
2023-04-23T11:52:55.315Z,99448.31
2023-04-23T11:55:23.146Z,99459.50
2023-04-23T11:57:51.419Z,99474.03
2023-04-23T12:00:19.477Z,99463.13
2023-04-23T12:03:02.661Z,99459.44
2023-04-23T12:05:36.811Z,99451.09
2023-04-23T12:08:16.157Z,99452.06
2023-04-23T12:10:43.216Z,99459.97
2023-04-23T12:13:30.740Z,99447.28
2023-04-23T12:15:59.004Z,99449.97
2023-04-23T12:18:33.446Z,99449.31
2023-04-23T12:21:07.540Z,99455.31
2023-04-23T12:23:36.128Z,99465.00
2023-04-23T12:26:03.328Z,99462.75
2023-04-23T12:28:30.130Z,99465.91
2023-04-23T12:31:01.618Z,99461.03
2023-04-23T12:33:31.572Z,99451.59
2023-04-23T12:36:00.962Z,99455.81
2023-04-23T12:38:29.304Z,99458.16
2023-04-23T12:40:59.921Z,99454.22
2023-04-23T12:43:26.939Z,99438.50
2023-04-23T12:45:54.570Z,99441.97
2023-04-23T12:48:21.285Z,99438.75
2023-04-23T12:50:48.695Z,99444.44
2023-04-23T12:53:15.500Z,99437.22
2023-04-23T12:55:44.257Z,99435.56
2023-04-23T12:58:11.059Z,99426.06
2023-04-23T13:00:37.704Z,99426.50
2023-04-23T13:03:04.716Z,99426.88
2023-04-23T13:05:31.449Z,99414.91
2023-04-23T13:07:58.053Z,99422.38
2023-04-23T13:10:24.697Z,99418.25
2023-04-23T13:12:51.233Z,99410.22
2023-04-23T13:15:20.005Z,99410.88
2023-04-23T13:17:46.775Z,99413.81
2023-04-23T13:20:13.489Z,99407.19
2023-04-23T13:22:40.208Z,99399.34
2023-04-23T13:25:07.170Z,99397.16
2023-04-23T13:27:36.292Z,99394.16
2023-04-23T13:30:03.369Z,99386.13
2023-04-23T13:32:32.648Z,99381.56
2023-04-23T13:35:04.934Z,99376.63
2023-04-23T13:37:34.742Z,99389.09
2023-04-23T13:40:01.341Z,99373.41
2023-04-23T13:42:27.857Z,99353.84
2023-04-23T13:44:54.419Z,99355.28
2023-04-23T13:47:21.009Z,99357.38
2023-04-23T13:49:48.079Z,99358.09
2023-04-23T13:52:14.676Z,99356.28
2023-04-23T13:54:41.346Z,99357.66
2023-04-23T13:57:07.998Z,99352.19
2023-04-23T13:59:34.624Z,99343.91
2023-04-23T14:02:01.188Z,99336.25
2023-04-23T14:04:27.863Z,99345.19
2023-04-23T14:06:54.516Z,99346.22
2023-04-23T14:09:22.507Z,99342.63
2023-04-23T14:11:49.599Z,99335.47
2023-04-23T14:14:17.158Z,99324.75
2023-04-23T14:16:44.298Z,99325.50
2023-04-23T14:19:10.934Z,99326.34
2023-04-23T14:21:38.020Z,99332.66
2023-04-23T14:24:22.202Z,99316.97
2023-04-23T14:26:50.062Z,99318.47
2023-04-23T14:29:22.946Z,99326.84
2023-04-23T14:31:49.626Z,99331.44
2023-04-23T14:34:16.438Z,99328.22
2023-04-23T14:36:43.085Z,99321.91
2023-04-23T14:39:12.431Z,99318.66
2023-04-23T14:41:40.221Z,99319.47
2023-04-23T14:44:07.282Z,99317.75
2023-04-23T14:46:33.998Z,99314.47
2023-04-23T14:49:00.610Z,99309.13
2023-04-23T14:51:30.296Z,99307.13
2023-04-23T14:53:57.122Z,99305.00
2023-04-23T14:56:23.960Z,99305.19
2023-04-23T14:58:50.743Z,99313.72
2023-04-23T15:01:17.559Z,99304.38
2023-04-23T15:03:46.278Z,99302.47
2023-04-23T15:06:13.387Z,99299.38
2023-04-23T15:08:40.134Z,99297.28
2023-04-23T15:11:13.219Z,99292.50
2023-04-23T15:14:19.596Z,99288.97
2023-04-23T15:16:49.292Z,99288.97
2023-04-23T15:19:22.147Z,99291.22
2023-04-23T15:21:49.280Z,99289.50
2023-04-23T15:24:16.834Z,99279.66
2023-04-23T15:26:45.922Z,99290.81
2023-04-23T15:29:14.120Z,99285.25
2023-04-23T15:31:41.691Z,99288.53
2023-04-23T15:34:09.147Z,99281.00
2023-04-23T15:36:37.435Z,99287.38
2023-04-23T15:39:04.529Z,99276.50
2023-04-23T15:41:31.162Z,99276.22
2023-04-23T15:44:05.291Z,99276.56
2023-04-23T15:46:34.641Z,99274.66
2023-04-23T15:49:01.224Z,99275.78
2023-04-23T15:51:27.837Z,99253.13
2023-04-23T15:53:54.320Z,99243.72
2023-04-23T15:56:20.834Z,99249.41
2023-04-23T15:58:48.678Z,99247.53
2023-04-23T16:01:17.228Z,99248.16
2023-04-23T16:03:50.584Z,99257.03
2023-04-23T16:06:24.380Z,99255.00
2023-04-23T16:08:50.889Z,99258.47
2023-04-23T16:11:17.469Z,99249.38
2023-04-23T16:13:44.047Z,99243.81
2023-04-23T16:16:10.552Z,99237.41
2023-04-23T16:18:37.133Z,99234.63
2023-04-23T16:21:06.058Z,99230.16
2023-04-23T16:23:32.486Z,99225.41
2023-04-23T16:26:01.464Z,99228.19
2023-04-23T16:28:28.086Z,99224.31
2023-04-23T16:30:54.611Z,99212.97
2023-04-23T16:33:23.768Z,99215.00
2023-04-23T16:35:50.313Z,99206.63
2023-04-23T16:38:16.863Z,99196.56
2023-04-23T16:40:47.049Z,99201.41
2023-04-23T16:43:13.731Z,99195.69
2023-04-23T16:45:41.308Z,99184.97
2023-04-23T16:48:08.203Z,99189.66
2023-04-23T16:50:34.730Z,99185.69
2023-04-23T16:53:01.705Z,99191.59
2023-04-23T16:55:28.269Z,99192.22
2023-04-23T16:57:55.282Z,99203.50
2023-04-23T17:00:21.976Z,99192.06
2023-04-23T17:02:48.703Z,99186.06
2023-04-23T17:05:15.398Z,99173.34
2023-04-23T17:07:43.981Z,99175.94
2023-04-23T17:10:10.878Z,99176.53
2023-04-23T17:12:37.403Z,99168.50
2023-04-23T17:15:04.227Z,99165.94
2023-04-23T17:17:39.799Z,99172.47
2023-04-23T17:20:08.074Z,99173.41
2023-04-23T17:22:34.756Z,99176.75
2023-04-23T17:25:01.309Z,99160.41
2023-04-23T17:27:27.824Z,99164.63
2023-04-23T17:29:54.384Z,99156.91
2023-04-23T17:32:20.970Z,99148.28
2023-04-23T17:34:51.458Z,99157.22
2023-04-23T17:37:21.691Z,99159.16
2023-04-23T17:39:48.239Z,99155.09
2023-04-23T17:42:14.789Z,99148.44
2023-04-23T17:44:41.734Z,99157.66
2023-04-23T17:47:10.227Z,99160.31
2023-04-23T17:49:36.808Z,99146.94
2023-04-23T17:52:03.502Z,99148.63
2023-04-23T17:54:30.065Z,99162.47
2023-04-23T17:56:56.607Z,99154.63
2023-04-23T17:59:23.233Z,99161.78
2023-04-23T18:01:49.865Z,99167.09
2023-04-23T18:04:17.695Z,99173.06
2023-04-23T18:06:44.631Z,99169.94
2023-04-23T18:09:11.125Z,99171.13
2023-04-23T18:11:38.810Z,99173.16
2023-04-23T18:14:05.354Z,99172.63
2023-04-23T18:16:31.969Z,99173.09
2023-04-23T18:18:58.558Z,99179.72
2023-04-23T18:21:25.221Z,99181.56
2023-04-23T18:23:51.803Z,99187.00
2023-04-23T18:26:18.352Z,99194.97
2023-04-23T18:28:44.888Z,99195.94
2023-04-23T18:31:12.314Z,99200.25
2023-04-23T18:33:58.472Z,99200.75
2023-04-23T18:36:32.381Z,99196.28
2023-04-23T18:38:59.487Z,99201.81
2023-04-23T18:56:08.687Z,99211.38
2023-04-23T18:58:35.288Z,99213.53
2023-04-23T19:01:02.013Z,99213.88
2023-04-23T19:03:29.723Z,99228.53
2023-04-23T19:05:56.419Z,99223.84
2023-04-23T19:08:28.340Z,99223.94
2023-04-23T19:10:58.551Z,99215.50
2023-04-23T19:13:25.386Z,99212.88
2023-04-23T19:15:52.043Z,99220.44
2023-04-23T19:18:19.432Z,99214.41
2023-04-23T19:20:46.157Z,99213.41
2023-04-23T19:23:12.673Z,99211.19
2023-04-23T19:25:39.381Z,99210.69
2023-04-23T19:28:06.020Z,99207.28
2023-04-23T19:30:32.614Z,99204.16
2023-04-23T19:32:59.184Z,99195.34
2023-04-23T19:35:26.449Z,99191.03
2023-04-23T19:37:53.134Z,99197.94
2023-04-23T19:40:19.706Z,99190.34
2023-04-23T19:42:46.229Z,99192.22
2023-04-23T19:45:15.416Z,99189.22
2023-04-23T19:47:41.918Z,99188.09
2023-04-23T19:50:09.835Z,99182.72
2023-04-23T19:52:36.879Z,99177.56
2023-04-23T19:55:03.614Z,99172.56
2023-04-23T19:57:30.300Z,99173.72
2023-04-23T19:59:56.831Z,99172.31
2023-04-23T20:02:23.854Z,99157.25
2023-04-23T20:04:50.408Z,99166.88
2023-04-23T20:07:16.998Z,99164.19
2023-04-23T20:09:43.760Z,99152.06
2023-04-23T20:12:10.796Z,99158.06
2023-04-23T20:14:37.512Z,99156.66
2023-04-23T20:17:04.427Z,99152.81
2023-04-23T20:19:31.335Z,99151.38
2023-04-23T20:21:57.931Z,99141.94
2023-04-23T20:24:24.479Z,99141.09
2023-04-23T20:26:51.180Z,99139.78
2023-04-23T20:29:17.747Z,99144.97
2023-04-23T20:31:48.770Z,99139.44
2023-04-23T20:34:16.843Z,99136.88
2023-04-23T20:36:47.064Z,99132.44
2023-04-23T20:39:14.152Z,99130.34
2023-04-23T20:41:40.957Z,99126.03
2023-04-23T20:44:07.541Z,99134.41
2023-04-23T20:46:34.138Z,99132.06
2023-04-23T20:49:03.299Z,99129.69
2023-04-23T20:51:34.106Z,99124.38
2023-04-23T20:54:01.611Z,99122.44
2023-04-23T20:56:28.555Z,99119.25
2023-04-23T20:58:55.146Z,99112.13
2023-04-23T21:01:21.755Z,99110.75
2023-04-23T21:03:48.828Z,99112.53
2023-04-23T21:06:15.743Z,99109.47
2023-04-23T21:08:42.938Z,99111.53
2023-04-23T21:11:17.728Z,99116.31
2023-04-23T21:13:45.342Z,99117.19
2023-04-23T21:16:12.043Z,99110.44
2023-04-23T21:18:39.728Z,99110.19
2023-04-23T21:21:06.340Z,99123.88
2023-04-23T21:23:32.892Z,99121.34
2023-04-23T21:25:59.416Z,99121.78
2023-04-23T21:28:26.041Z,99122.19
2023-04-23T21:30:55.350Z,99129.47
2023-04-23T21:33:23.781Z,99127.09
2023-04-23T21:35:51.376Z,99118.31
2023-04-23T21:38:18.812Z,99118.69
2023-04-23T21:40:45.894Z,99115.69
2023-04-23T21:43:12.880Z,99120.16
2023-04-23T21:45:39.520Z,99116.28
2023-04-23T21:48:06.502Z,99118.50
2023-04-23T21:50:33.288Z,99107.50
2023-04-23T21:53:00.430Z,99110.28
2023-04-23T21:55:29.024Z,99104.41
2023-04-23T21:58:03.181Z,99108.16
2023-04-23T22:00:33.260Z,99105.66
2023-04-23T22:03:00.068Z,99093.00
2023-04-23T22:05:28.463Z,99092.81
2023-04-23T22:07:56.835Z,99095.78
2023-04-23T22:10:23.776Z,99091.72
2023-04-23T22:12:50.809Z,99085.72
2023-04-23T22:15:19.122Z,99089.22
2023-04-23T22:17:50.455Z,99087.41
2023-04-23T22:20:19.054Z,99086.66
2023-04-23T22:22:46.370Z,99072.28
2023-04-23T22:25:13.460Z,99067.44
2023-04-23T22:27:41.318Z,99070.22
2023-04-23T22:30:09.478Z,99069.66
2023-04-23T22:32:37.801Z,99068.28
2023-04-23T22:35:05.374Z,99056.84
2023-04-23T22:37:32.464Z,99065.28
2023-04-23T22:40:00.006Z,99056.09
2023-04-23T22:42:26.947Z,99056.66
2023-04-23T22:44:53.536Z,99047.75
2023-04-23T22:47:20.159Z,99045.53
2023-04-23T22:49:46.723Z,99041.06
2023-04-23T22:52:14.292Z,99029.34
2023-04-23T22:54:41.599Z,99038.69
2023-04-23T22:57:09.034Z,99028.63
2023-04-23T22:59:36.219Z,99029.19
2023-04-23T23:02:02.809Z,99021.13
2023-04-23T23:04:29.385Z,99008.84
2023-04-23T23:06:56.346Z,99009.41
2023-04-23T23:09:22.861Z,99005.22
2023-04-23T23:11:49.500Z,99006.59
2023-04-23T23:14:16.908Z,99011.06
2023-04-23T23:16:43.547Z,99001.16
2023-04-23T23:19:10.112Z,99006.59
2023-04-23T23:21:36.712Z,98997.09
2023-04-23T23:24:03.378Z,98992.09
2023-04-23T23:26:29.904Z,98990.13
2023-04-23T23:28:56.445Z,98985.53
2023-04-23T23:31:25.985Z,98987.34
2023-04-23T23:33:53.646Z,98986.22
2023-04-23T23:36:20.901Z,98980.09
2023-04-23T23:38:47.461Z,98975.06
2023-04-23T23:41:14.066Z,98980.81
2023-04-23T23:43:40.643Z,98971.88
2023-04-23T23:46:07.953Z,98971.16
2023-04-23T23:48:34.719Z,98963.91
2023-04-23T23:51:01.379Z,98970.03
2023-04-23T23:53:27.921Z,98971.88
2023-04-23T23:55:54.474Z,98970.19
2023-04-23T23:58:21.668Z,98955.25
